Time;durP1;ratioP1;P1;durP2;ratioP2;P2;SDS_P1;SDS_P2;PMS_P1;PMS_P2;Temp;Humidity;BMP_temperature;BMP_pressure;BME280_temperature;BME280_humidity;BME280_pressure;Samples;Min_cycle;Max_cycle;Signal;HPM_P1;HPM_P2
2023/04/20 00:01:52;;;;;;;1.80;1.40;;;;;;;8.95;100.00;102413.91;5003784;28;20181;-72
2023/04/20 00:04:18;;;;;;;2.57;1.70;;;;;;;8.89;100.00;102387.75;5005476;28;20847;-72
2023/04/20 00:06:44;;;;;;;1.90;1.40;;;;;;;8.87;100.00;102381.69;5004317;28;20251;-73
2023/04/20 00:09:12;;;;;;;1.60;1.30;;;;;;;8.94;100.00;102389.00;5003671;28;20181;-72
2023/04/20 00:11:38;;;;;;;2.60;1.40;;;;;;;8.34;100.00;102319.03;5003607;28;20455;-72
2023/04/20 00:14:03;;;;;;;1.97;1.47;;;;;;;8.43;100.00;102306.63;5003770;28;20467;-72
2023/04/20 00:16:29;;;;;;;1.90;1.50;;;;;;;7.87;100.00;102209.53;5003021;28;20611;-72
2023/04/20 00:18:54;;;;;;;1.90;1.63;;;;;;;8.61;100.00;102326.22;5003906;28;20221;-73
2023/04/20 00:21:23;;;;;;;2.63;1.47;;;;;;;9.05;100.00;102390.59;5004225;28;20194;-73
2023/04/20 00:23:49;;;;;;;5.37;1.80;;;;;;;8.90;100.00;102368.03;5004492;28;20283;-72
2023/04/20 00:26:15;;;;;;;3.23;1.23;;;;;;;8.77;100.00;102347.81;5005183;28;20425;-72
2023/04/20 00:28:41;;;;;;;2.30;1.47;;;;;;;8.54;100.00;102314.47;4987042;28;20440;-73
2023/04/20 00:31:07;;;;;;;4.37;1.90;;;;;;;8.02;100.00;102210.72;5003924;28;20491;-72
2023/04/20 00:33:32;;;;;;;4.43;1.50;;;;;;;8.74;100.00;102358.81;4986445;28;20192;-72
2023/04/20 00:35:58;;;;;;;5.20;2.27;;;;;;;8.74;100.00;102352.63;5003569;28;20199;-72
2023/04/20 00:38:23;;;;;;;3.60;1.57;;;;;;;8.36;100.00;102263.56;4987771;28;20271;-72
2023/04/20 00:40:52;;;;;;;3.17;1.53;;;;;;;8.49;100.00;102312.22;5005205;28;20209;-73
2023/04/20 00:43:18;;;;;;;1.87;1.40;;;;;;;8.57;100.00;102346.25;5004913;28;20680;-72
2023/04/20 00:45:45;;;;;;;4.13;1.80;;;;;;;8.15;100.00;102247.78;5002843;28;20448;-73
2023/04/20 00:48:11;;;;;;;3.47;1.50;;;;;;;8.77;100.00;102310.38;5003474;28;20432;-72
2023/04/20 00:50:38;;;;;;;3.67;1.63;;;;;;;8.24;100.00;102257.56;5003258;28;20425;-72
2023/04/20 00:53:05;;;;;;;2.57;1.53;;;;;;;8.45;100.00;102289.44;4985648;28;20491;-72
2023/04/20 00:55:31;;;;;;;4.67;1.80;;;;;;;8.71;100.00;102327.03;5003105;28;20447;-72
2023/04/20 00:57:57;;;;;;;5.27;1.30;;;;;;;7.91;100.00;102209.06;5002718;28;20532;-72
2023/04/20 01:00:22;;;;;;;2.70;1.53;;;;;;;8.42;100.00;102271.03;4986729;28;20458;-72
2023/04/20 01:02:48;;;;;;;2.33;1.33;;;;;;;8.13;100.00;102223.03;5003914;28;20424;-72
2023/04/20 01:05:14;;;;;;;7.00;1.77;;;;;;;8.01;100.00;102184.97;5003930;28;20222;-73
2023/04/20 01:07:39;;;;;;;3.57;2.03;;;;;;;7.98;100.00;102213.81;5002341;28;20177;-72
2023/04/20 01:10:06;;;;;;;3.43;1.60;;;;;;;8.61;100.00;102310.19;5003047;28;20251;-73
2023/04/20 01:12:33;;;;;;;2.00;1.63;;;;;;;8.47;100.00;102274.06;5003065;28;20223;-73
2023/04/20 01:14:58;;;;;;;2.23;1.40;;;;;;;8.65;100.00;102295.53;5004061;28;20455;-73
2023/04/20 01:17:23;;;;;;;2.90;1.50;;;;;;;8.52;100.00;102279.00;5002941;28;20420;-72
2023/04/20 01:19:49;;;;;;;2.17;1.40;;;;;;;8.16;100.00;102214.72;5002964;28;20185;-72
2023/04/20 01:22:19;;;;;;;2.40;1.60;;;;;;;8.75;100.00;102284.75;5002328;28;20185;-72
2023/04/20 01:24:45;;;;;;;3.57;1.63;;;;;;;7.79;100.00;102201.41;5002119;28;20826;-73
2023/04/20 01:27:12;;;;;;;3.83;1.10;;;;;;;8.48;100.00;102281.13;5002774;28;20428;-73
2023/04/20 01:29:38;;;;;;;1.60;1.37;;;;;;;8.21;100.00;102252.50;5004379;28;20235;-72
2023/04/20 01:32:04;;;;;;;3.03;1.50;;;;;;;8.55;100.00;102273.34;4986644;28;20959;-73
2023/04/20 01:34:29;;;;;;;5.20;1.37;;;;;;;7.68;100.00;102179.22;4985477;28;20489;-72
2023/04/20 01:36:55;;;;;;;3.67;1.40;;;;;;;8.00;100.00;102215.34;4985899;28;20189;-72
2023/04/20 01:39:20;;;;;;;1.97;1.40;;;;;;;8.10;100.00;102220.63;4985229;28;20208;-72
2023/04/20 01:41:46;;;;;;;3.57;1.90;;;;;;;7.82;100.00;102164.56;5002303;28;20270;-73
2023/04/20 01:44:11;;;;;;;2.53;1.53;;;;;;;8.00;100.00;102185.13;5002393;28;20263;-73
2023/04/20 01:46:40;;;;;;;6.13;2.03;;;;;;;7.81;100.00;102192.25;5001258;28;20186;-72
2023/04/20 01:49:06;;;;;;;3.80;2.00;;;;;;;7.92;100.00;102224.09;5000263;28;20197;-73
2023/04/20 01:51:33;;;;;;;4.30;1.60;;;;;;;7.77;100.00;102169.50;5002421;28;20543;-72
2023/04/20 01:53:59;;;;;;;4.20;1.97;;;;;;;8.17;100.00;102224.41;5000151;28;20456;-72
2023/04/20 01:56:25;;;;;;;3.77;1.60;;;;;;;7.60;100.00;102124.88;5001472;28;20427;-72
2023/04/20 01:58:50;;;;;;;3.43;1.40;;;;;;;7.17;100.00;102084.44;5002017;28;20477;-72
2023/04/20 02:01:16;;;;;;;2.70;1.30;;;;;;;7.68;100.00;102154.34;5000513;28;20185;-72
2023/04/20 02:03:41;;;;;;;3.60;1.80;;;;;;;8.24;100.00;102221.97;5003044;28;20275;-73
2023/04/20 02:06:07;;;;;;;2.20;1.50;;;;;;;8.29;100.00;102223.22;5003092;28;20189;-73
2023/04/20 02:08:32;;;;;;;4.70;1.57;;;;;;;8.33;100.00;102205.91;4985717;28;20619;-73
2023/04/20 02:10:58;;;;;;;3.83;1.70;;;;;;;7.68;100.00;102074.25;5003203;28;20224;-73
2023/04/20 02:13:24;;;;;;;4.00;1.63;;;;;;;8.06;100.00;102158.66;5001540;28;20197;-72
2023/04/20 02:15:49;;;;;;;3.70;2.40;;;;;;;8.40;100.00;102195.47;5002502;28;20185;-73
2023/04/20 02:18:15;;;;;;;4.33;1.93;;;;;;;8.14;100.00;102105.28;5001920;28;20209;-72
2023/04/20 02:20:41;;;;;;;3.70;1.90;;;;;;;8.52;100.00;102180.88;5002854;28;20639;-72
2023/04/20 02:23:07;;;;;;;3.27;1.90;;;;;;;7.99;100.00;102130.84;5001612;28;20626;-71
2023/04/20 02:25:32;;;;;;;2.93;1.60;;;;;;;8.23;100.00;102129.44;5002742;28;20934;-72
2023/04/20 02:27:58;;;;;;;3.10;2.03;;;;;;;8.72;100.00;102213.66;5002460;28;20242;-72
2023/04/20 02:30:23;;;;;;;4.17;2.10;;;;;;;8.66;100.00;102213.44;5003037;28;20185;-72
2023/04/20 02:32:49;;;;;;;4.03;1.80;;;;;;;8.22;100.00;102117.06;5002489;28;20186;-72
2023/04/20 02:35:14;;;;;;;5.00;1.67;;;;;;;8.29;100.00;102137.66;5002175;28;20267;-72
2023/04/20 02:37:40;;;;;;;2.83;1.70;;;;;;;8.45;100.00;102195.88;5002017;28;20200;-72
2023/04/20 02:40:06;;;;;;;5.60;2.37;;;;;;;8.85;100.00;102231.16;5002886;28;20185;-74
2023/04/20 02:42:31;;;;;;;1.60;1.40;;;;;;;8.69;100.00;102215.81;5001963;28;20181;-73
2023/04/20 02:44:57;;;;;;;4.17;2.00;;;;;;;7.91;100.00;102066.63;5000244;28;20455;-73
2023/04/20 02:47:22;;;;;;;2.20;1.40;;;;;;;8.83;100.00;102205.41;5001553;28;20205;-73
2023/04/20 02:49:48;;;;;;;3.33;2.07;;;;;;;8.73;100.00;102222.53;5001318;28;20201;-73
2023/04/20 02:52:13;;;;;;;3.13;1.50;;;;;;;8.77;100.00;102200.69;5001995;28;20272;-73
2023/04/20 02:54:40;;;;;;;3.23;1.57;;;;;;;8.73;100.00;102218.00;5000243;28;20227;-73
2023/04/20 02:57:06;;;;;;;4.27;1.57;;;;;;;8.67;100.00;102181.19;5000973;28;20192;-73
2023/04/20 02:59:31;;;;;;;3.07;1.70;;;;;;;8.55;100.00;102187.75;5001229;28;20471;-73
2023/04/20 03:01:56;;;;;;;3.97;1.50;;;;;;;8.83;100.00;102229.50;5002469;28;20196;-72
2023/04/20 03:04:22;;;;;;;1.67;1.53;;;;;;;8.93;100.00;102225.88;5000545;28;20227;-73
2023/04/20 03:06:49;;;;;;;3.97;1.40;;;;;;;8.82;100.00;102232.31;5000715;28;20181;-73
2023/04/20 03:09:15;;;;;;;2.03;1.53;;;;;;;8.95;100.00;102239.97;5000350;28;20181;-73
2023/04/20 03:11:40;;;;;;;2.60;1.47;;;;;;;8.13;100.00;102114.31;5000121;28;20499;-72
2023/04/20 03:14:06;;;;;;;2.17;1.10;;;;;;;8.36;100.00;102159.28;5001127;28;20200;-72
2023/04/20 03:16:31;;;;;;;4.60;1.53;;;;;;;8.94;100.00;102265.03;5001050;28;20644;-73
2023/04/20 03:18:57;;;;;;;2.30;1.60;;;;;;;8.07;100.00;102125.59;5000558;28;20212;-73
2023/04/20 03:21:22;;;;;;;3.20;1.57;;;;;;;8.88;100.00;102269.19;5001527;28;20224;-72
2023/04/20 03:23:48;;;;;;;2.60;1.30;;;;;;;8.49;100.00;102189.19;4999678;28;20219;-73
2023/04/20 03:26:13;;;;;;;2.40;1.20;;;;;;;8.09;100.00;102109.41;5000503;28;20243;-72
2023/04/20 03:28:40;;;;;;;4.00;1.80;;;;;;;9.15;100.00;102268.25;4990191;28;20196;-73
2023/04/20 03:31:06;;;;;;;2.50;2.10;;;;;;;9.03;100.00;102261.44;5003184;28;20193;-73
2023/04/20 03:33:31;;;;;;;1.67;1.23;;;;;;;8.45;100.00;102179.81;5000735;28;20462;-72
2023/04/20 03:35:57;;;;;;;2.40;1.57;;;;;;;8.72;100.00;102224.38;5001396;28;20244;-73
2023/04/20 03:38:22;;;;;;;3.30;1.60;;;;;;;8.79;100.00;102204.06;5000667;28;20213;-73
2023/04/20 03:40:48;;;;;;;3.80;1.40;;;;;;;8.50;100.00;102157.94;5000211;28;20703;-72
2023/04/20 03:43:13;;;;;;;2.67;1.60;;;;;;;8.17;100.00;102093.44;5000259;28;20192;-73
2023/04/20 03:45:38;;;;;;;3.57;1.40;;;;;;;7.56;100.00;102006.84;5000795;28;20197;-73
2023/04/20 03:48:04;;;;;;;1.60;1.37;;;;;;;8.71;100.00;102195.94;5000732;28;20173;-73
2023/04/20 03:50:30;;;;;;;4.17;1.53;;;;;;;8.50;100.00;102160.63;5001203;28;20193;-73
2023/04/20 03:52:55;;;;;;;2.10;1.03;;;;;;;8.85;100.00;102241.88;4999926;28;20189;-73
2023/04/20 03:55:20;;;;;;;3.20;1.47;;;;;;;8.33;100.00;102146.22;5000377;28;20680;-73
2023/04/20 03:57:47;;;;;;;1.57;1.10;;;;;;;8.53;100.00;102158.50;4999072;28;20672;-72
2023/04/20 04:00:13;;;;;;;1.87;1.30;;;;;;;8.68;100.00;102196.25;5000325;28;20651;-72
2023/04/20 04:02:38;;;;;;;2.50;1.20;;;;;;;8.67;100.00;102189.19;5000127;28;20455;-72
2023/04/20 04:05:04;;;;;;;3.77;1.30;;;;;;;8.88;100.00;102221.00;4999877;28;20817;-72
2023/04/20 04:07:29;;;;;;;3.07;1.37;;;;;;;8.25;100.00;102133.63;5000547;28;20189;-72
2023/04/20 04:09:55;;;;;;;2.77;1.40;;;;;;;8.88;100.00;102228.19;4999382;28;20436;-73
2023/04/20 04:12:20;;;;;;;2.60;1.43;;;;;;;8.29;100.00;102134.16;5000348;28;20283;-73
2023/04/20 04:14:46;;;;;;;3.40;1.47;;;;;;;8.53;100.00;102166.53;4999364;28;20672;-73
2023/04/20 04:17:13;;;;;;;4.00;1.70;;;;;;;8.89;100.00;102224.53;4999756;28;20560;-72
2023/04/20 04:19:39;;;;;;;2.67;1.30;;;;;;;8.12;100.00;102095.75;5000515;28;20189;-73
2023/04/20 04:22:05;;;;;;;1.93;1.47;;;;;;;8.40;100.00;102146.50;4982915;28;20442;-71
2023/04/20 04:24:32;;;;;;;2.53;1.40;;;;;;;8.13;100.00;102078.72;4999709;28;20201;-72
2023/04/20 04:26:57;;;;;;;5.10;1.50;;;;;;;8.92;100.00;102234.91;5000396;28;20517;-73
2023/04/20 04:29:24;;;;;;;2.30;1.50;;;;;;;8.90;100.00;102188.72;5000670;28;20456;-72
2023/04/20 04:31:51;;;;;;;3.97;2.07;;;;;;;8.88;100.00;102169.31;5000431;28;20263;-72
2023/04/20 04:34:20;;;;;;;4.13;1.70;;;;;;;8.07;100.00;102042.75;4999315;28;20455;-72
2023/04/20 04:36:45;;;;;;;2.60;1.60;;;;;;;7.98;100.00;102046.31;5002642;28;20603;-72
2023/04/20 04:39:11;;;;;;;1.93;1.40;;;;;;;7.56;100.00;101990.00;5000765;28;20557;-72
2023/04/20 04:41:37;;;;;;;3.80;1.77;;;;;;;8.67;100.00;102167.81;5001979;28;20628;-72
2023/04/20 04:44:04;;;;;;;2.77;1.47;;;;;;;7.61;100.00;102004.56;5002408;28;20479;-72
2023/04/20 04:46:31;;;;;;;5.43;1.50;;;;;;;7.91;100.00;102069.31;5004075;28;20187;-72
2023/04/20 04:48:59;;;;;;;1.70;1.40;;;;;;;8.52;100.00;102183.56;5005719;28;20472;-72
2023/04/20 04:51:25;;;;;;;3.17;1.40;;;;;;;8.13;100.00;102097.44;5004461;28;20441;-72
2023/04/20 04:53:50;;;;;;;2.97;1.47;;;;;;;8.29;100.00;102124.31;5002607;28;20449;-74
2023/04/20 04:56:17;;;;;;;1.80;1.30;;;;;;;8.29;100.00;102113.63;5003200;28;20272;-71
2023/04/20 04:58:44;;;;;;;2.80;1.33;;;;;;;8.72;100.00;102188.75;5002811;28;20208;-72
2023/04/20 05:01:10;;;;;;;2.53;1.40;;;;;;;8.14;100.00;102104.44;5005021;28;20424;-72
2023/04/20 05:03:35;;;;;;;4.27;1.40;;;;;;;8.58;100.00;102169.56;5003866;28;20776;-73
2023/04/20 05:06:01;;;;;;;3.30;1.30;;;;;;;8.06;100.00;102101.69;5004463;28;20280;-72
2023/04/20 05:08:26;;;;;;;6.30;1.27;;;;;;;8.51;100.00;102173.03;5003325;28;20715;-72
2023/04/20 05:10:51;;;;;;;1.97;1.37;;;;;;;8.60;100.00;102169.44;5004807;28;20186;-71
2023/04/20 05:13:17;;;;;;;3.27;1.47;;;;;;;7.94;100.00;102058.31;4992048;28;20193;-72
2023/04/20 05:15:42;;;;;;;4.07;1.60;;;;;;;8.17;100.00;102114.84;4985106;28;20225;-72
2023/04/20 05:18:08;;;;;;;2.63;1.30;;;;;;;7.65;100.00;102037.97;5004872;28;20239;-72
2023/04/20 05:20:33;;;;;;;1.83;1.10;;;;;;;7.77;100.00;102029.75;5003698;28;20271;-72
2023/04/20 05:22:59;;;;;;;2.63;1.33;;;;;;;8.48;100.00;102159.97;5003505;28;20186;-71
2023/04/20 05:25:24;;;;;;;3.23;1.40;;;;;;;8.24;100.00;102099.84;5003658;28;20217;-72
2023/04/20 05:27:50;;;;;;;5.83;1.40;;;;;;;7.68;100.00;102048.38;4986342;28;20185;-72
2023/04/20 05:30:15;;;;;;;2.17;1.30;;;;;;;8.18;100.00;102123.69;5004497;28;20693;-72
2023/04/20 05:32:41;;;;;;;2.33;1.40;;;;;;;8.05;100.00;102100.03;5003621;28;20189;-71
2023/04/20 05:35:07;;;;;;;2.90;1.40;;;;;;;7.89;100.00;102096.16;5003623;28;20208;-72
2023/04/20 05:37:32;;;;;;;2.47;1.57;;;;;;;7.97;100.00;102083.91;5003607;28;20647;-72
2023/04/20 05:39:58;;;;;;;2.33;1.23;;;;;;;7.69;100.00;102063.41;5003812;28;20523;-72
2023/04/20 05:42:23;;;;;;;3.20;1.47;;;;;;;8.00;100.00;102110.31;5002496;28;20246;-72
2023/04/20 05:44:48;;;;;;;4.80;1.00;;;;;;;8.28;100.00;102144.03;5001702;28;20268;-72
2023/04/20 05:47:14;;;;;;;1.90;1.30;;;;;;;8.07;100.00;102119.41;5001317;28;20189;-71
2023/04/20 05:49:39;;;;;;;4.20;1.50;;;;;;;8.47;100.00;102201.03;5002422;28;20707;-72
2023/04/20 05:52:05;;;;;;;1.40;1.30;;;;;;;8.33;100.00;102179.16;5002593;28;20204;-72
2023/04/20 05:54:30;;;;;;;3.20;1.27;;;;;;;8.51;100.00;102192.56;5000175;28;20213;-73
2023/04/20 05:56:59;;;;;;;1.83;1.00;;;;;;;7.90;100.00;102108.56;5000585;28;20196;-71
2023/04/20 05:59:25;;;;;;;2.23;1.20;;;;;;;7.65;100.00;102064.69;5001769;28;20296;-72
2023/04/20 06:01:51;;;;;;;1.90;1.40;;;;;;;8.47;100.00;102193.03;5002370;28;20503;-73
2023/04/20 06:04:17;;;;;;;2.57;1.30;;;;;;;8.07;100.00;102135.44;5002293;28;20551;-72
2023/04/20 06:06:42;;;;;;;4.07;1.27;;;;;;;7.69;100.00;102094.59;5001394;28;20560;-71
2023/04/20 06:09:08;;;;;;;2.43;1.20;;;;;;;8.30;100.00;102152.75;5001869;28;20428;-72
2023/04/20 06:11:34;;;;;;;2.27;1.10;;;;;;;7.85;100.00;102085.94;4990624;28;20644;-73
2023/04/20 06:14:00;;;;;;;2.00;1.40;;;;;;;7.76;100.00;102097.53;5001504;28;20204;-72
2023/04/20 06:16:25;;;;;;;2.53;1.27;;;;;;;8.03;100.00;102110.84;5002290;28;20465;-71
2023/04/20 06:18:51;;;;;;;2.47;1.40;;;;;;;7.94;100.00;102119.78;5001608;28;20209;-72
2023/04/20 06:21:16;;;;;;;1.73;1.20;;;;;;;8.16;100.00;102150.59;4984319;28;20569;-73
2023/04/20 06:23:43;;;;;;;3.27;1.60;;;;;;;8.18;100.00;102135.22;5001205;28;20676;-71
2023/04/20 06:26:09;;;;;;;1.47;1.10;;;;;;;7.91;100.00;102128.09;5002519;28;20185;-72
2023/04/20 06:28:35;;;;;;;3.07;1.90;;;;;;;8.00;100.00;102102.31;5002195;28;20421;-71
2023/04/20 06:31:02;;;;;;;2.37;1.40;;;;;;;7.16;100.00;101969.84;5002573;28;20515;-71
2023/04/20 06:33:27;;;;;;;1.97;1.40;;;;;;;7.57;100.00;102039.72;5001340;28;20431;-72
2023/04/20 06:35:55;;;;;;;1.97;1.33;;;;;;;7.45;100.00;102031.09;5000255;28;20432;-71
2023/04/20 06:38:21;;;;;;;1.60;1.10;;;;;;;7.80;100.00;102101.56;5002364;28;21083;-72
2023/04/20 06:40:46;;;;;;;2.80;1.50;;;;;;;7.36;100.00;102042.66;4985558;28;20437;-72
2023/04/20 06:43:11;;;;;;;2.60;1.50;;;;;;;7.88;100.00;102126.56;5000656;28;20192;-71
2023/04/20 06:45:37;;;;;;;2.90;1.70;;;;;;;7.69;100.00;102142.66;5001111;28;20213;-72
2023/04/20 06:48:02;;;;;;;2.73;1.80;;;;;;;7.74;100.00;102159.09;5000126;28;20186;-72
2023/04/20 06:50:28;;;;;;;2.40;1.57;;;;;;;7.55;100.00;102145.81;5000979;28;20181;-72
2023/04/20 06:52:53;;;;;;;2.43;1.50;;;;;;;6.85;100.00;102049.31;5000178;28;20189;-71
2023/04/20 06:55:19;;;;;;;3.17;2.07;;;;;;;7.62;100.00;102153.13;5000809;28;20612;-71
2023/04/20 06:57:45;;;;;;;2.67;1.80;;;;;;;6.95;100.00;102013.63;5001454;28;20259;-72
2023/04/20 07:00:11;;;;;;;2.57;1.40;;;;;;;7.08;100.00;102055.97;5001164;28;20532;-71
2023/04/20 07:02:43;;;;;;;4.43;1.50;;;;;;;7.61;100.00;102129.25;5001120;28;20247;-71
2023/04/20 07:05:10;;;;;;;2.60;1.40;;;;;;;7.22;100.00;102084.00;5000261;28;20456;-71
2023/04/20 07:07:35;;;;;;;2.20;1.70;;;;;;;6.66;100.00;101989.72;4999406;28;20466;-71
2023/04/20 07:10:00;;;;;;;11.40;2.03;;;;;;;7.39;100.00;102087.75;5000737;28;20518;-72
2023/04/20 07:12:26;;;;;;;3.47;1.73;;;;;;;6.59;100.00;101950.44;5000808;28;20607;-71
2023/04/20 07:14:51;;;;;;;2.70;1.40;;;;;;;7.79;100.00;102083.88;5000311;28;20691;-72
2023/04/20 07:17:17;;;;;;;3.90;1.63;;;;;;;7.07;100.00;101987.59;4999869;28;20216;-72
2023/04/20 07:19:42;;;;;;;4.40;2.13;;;;;;;7.74;100.00;102078.13;5001686;28;20214;-72
2023/04/20 07:22:07;;;;;;;2.37;1.70;;;;;;;7.79;100.00;102107.91;4999905;28;20638;-72
2023/04/20 07:24:33;;;;;;;2.47;2.03;;;;;;;7.34;100.00;102056.13;5000997;28;20212;-72
2023/04/20 07:26:58;;;;;;;3.77;1.90;;;;;;;7.58;100.00;102070.75;5000396;28;20189;-71
2023/04/20 07:29:24;;;;;;;2.93;1.83;;;;;;;7.17;100.00;101998.22;5000006;28;20181;-71
2023/04/20 07:31:49;;;;;;;5.17;2.10;;;;;;;7.47;100.00;102045.97;4983328;28;20564;-71
2023/04/20 07:34:15;;;;;;;3.50;1.97;;;;;;;7.81;100.00;102081.88;5000928;28;20275;-71
2023/04/20 07:36:40;;;;;;;3.60;2.00;;;;;;;7.82;100.00;102083.56;5001756;28;20658;-72
2023/04/20 07:39:06;;;;;;;3.37;2.50;;;;;;;7.92;100.00;102103.03;5000469;28;20212;-71
2023/04/20 07:41:31;;;;;;;1.43;1.33;;;;;;;7.91;100.00;102090.69;5000526;28;20185;-71
2023/04/20 07:43:57;;;;;;;3.20;1.73;;;;;;;7.83;100.00;102091.44;4999396;28;20363;-71
2023/04/20 07:46:22;;;;;;;3.03;1.70;;;;;;;7.43;100.00;102020.56;4999434;28;20553;-71
2023/04/20 07:48:48;;;;;;;2.93;1.83;;;;;;;7.76;100.00;102052.13;5000607;28;20255;-72
2023/04/20 07:51:13;;;;;;;5.37;1.70;;;;;;;7.56;100.00;102038.06;5000942;28;20196;-72
2023/04/20 07:53:39;;;;;;;2.43;1.67;;;;;;;7.33;100.00;101997.59;4983953;28;20220;-72
2023/04/20 07:56:05;;;;;;;2.93;2.23;;;;;;;7.74;100.00;102070.97;4999842;28;20188;-72
2023/04/20 07:58:30;;;;;;;2.30;1.80;;;;;;;7.20;100.00;102005.91;4999826;28;20215;-72
2023/04/20 08:00:57;;;;;;;3.10;1.80;;;;;;;7.39;100.00;102075.22;4999333;28;20204;-72
2023/04/20 08:03:22;;;;;;;4.17;2.10;;;;;;;7.80;100.00;102097.06;5000281;28;20450;-72
2023/04/20 08:05:47;;;;;;;5.30;1.80;;;;;;;7.73;100.00;102088.00;4999748;28;20201;-72
2023/04/20 08:08:13;;;;;;;3.60;1.73;;;;;;;7.70;100.00;102096.31;5001267;28;20186;-71
2023/04/20 08:10:38;;;;;;;3.07;2.00;;;;;;;7.78;100.00;102090.19;4999962;28;20183;-72
2023/04/20 08:13:04;;;;;;;3.50;1.80;;;;;;;6.91;100.00;101950.88;5000055;28;20182;-72
2023/04/20 08:15:30;;;;;;;3.77;2.77;;;;;;;6.72;100.00;101958.97;4999576;28;20233;-72
2023/04/20 08:17:55;;;;;;;2.83;2.07;;;;;;;7.25;100.00;102001.81;5002923;28;20204;-72
2023/04/20 08:20:20;;;;;;;5.33;2.37;;;;;;;7.91;100.00;102086.19;5002870;28;20459;-72
2023/04/20 08:22:46;;;;;;;3.77;1.90;;;;;;;7.91;100.00;102086.19;5003397;28;20187;-71
2023/04/20 08:25:11;;;;;;;5.47;2.30;;;;;;;7.45;100.00;101977.69;5004453;28;20659;-71
2023/04/20 08:27:37;;;;;;;2.80;1.90;;;;;;;7.18;100.00;101935.88;5004269;28;20607;-71
2023/04/20 08:30:06;;;;;;;3.80;1.83;;;;;;;7.76;100.00;102015.56;4993442;28;20582;-72
2023/04/20 08:32:32;;;;;;;5.27;2.40;;;;;;;8.22;100.00;102085.00;5004533;28;20185;-71
2023/04/20 08:34:57;;;;;;;2.80;1.80;;;;;;;8.11;100.00;102059.31;5002774;28;20972;-71
2023/04/20 08:37:24;;;;;;;2.30;2.00;;;;;;;7.92;100.00;101986.31;5004072;28;20212;-72
2023/04/20 08:39:49;;;;;;;3.00;2.40;;;;;;;7.62;100.00;101954.69;5006129;28;20228;-72
2023/04/20 08:42:15;;;;;;;2.20;1.83;;;;;;;8.15;100.00;102032.13;5003630;28;20423;-72
2023/04/20 08:44:41;;;;;;;5.17;2.73;;;;;;;8.51;100.00;102087.44;5003908;28;20279;-72
2023/04/20 08:47:09;;;;;;;5.37;2.50;;;;;;;8.27;100.00;102070.16;5003399;28;20500;-74
2023/04/20 08:49:38;;;;;;;3.27;2.27;;;;;;;8.42;100.00;102091.88;5004439;28;20639;-72
2023/04/20 08:52:03;;;;;;;6.27;2.60;;;;;;;7.58;100.00;101970.16;5003659;28;20430;-72
2023/04/20 08:54:29;;;;;;;4.97;2.70;;;;;;;8.43;100.00;102088.22;5005099;28;20518;-73
2023/04/20 08:56:54;;;;;;;4.83;2.60;;;;;;;8.49;100.00;102087.59;5004000;28;20185;-73
2023/04/20 08:59:20;;;;;;;4.70;2.63;;;;;;;8.23;100.00;102047.41;5003480;28;20205;-72
2023/04/20 09:01:45;;;;;;;3.70;2.50;;;;;;;7.84;100.00;101978.25;5003410;28;20186;-72
2023/04/20 09:04:25;;;;;;;5.00;2.70;;;;;;;8.25;100.00;102060.63;5003042;28;20276;-72
2023/04/20 09:06:53;;;;;;;5.53;3.10;;;;;;;8.67;100.00;102095.59;5002524;28;20208;-72
2023/04/20 09:09:20;;;;;;;5.33;2.73;;;;;;;8.80;100.00;102100.53;5002589;28;20475;-71
2023/04/20 09:11:47;;;;;;;3.37;2.80;;;;;;;8.31;100.00;102036.78;5003362;28;20455;-72
2023/04/20 09:14:15;;;;;;;6.23;3.10;;;;;;;8.18;100.00;102020.28;5003019;28;20440;-72
2023/04/20 09:16:51;;;;;;;6.10;3.33;;;;;;;8.47;100.00;102070.84;5003343;28;20458;-72
2023/04/20 09:19:28;;;;;;;4.03;2.63;;;;;;;8.60;100.00;102118.59;4985689;28;20551;-71
2023/04/20 09:21:55;;;;;;;7.77;3.27;;;;;;;8.59;100.00;102116.91;4985155;28;20497;-72
2023/04/20 09:24:22;;;;;;;5.03;3.13;;;;;;;8.64;100.00;102109.25;5003690;28;20499;-73
2023/04/20 09:26:47;;;;;;;9.50;3.07;;;;;;;8.58;100.00;102101.88;5003771;28;20423;-72
2023/04/20 09:29:20;;;;;;;3.77;2.57;;;;;;;8.64;100.00;102113.78;5004380;28;20424;-72
2023/04/20 09:31:47;;;;;;;5.07;3.00;;;;;;;8.67;100.00;102110.78;5003555;28;20232;-73
2023/04/20 09:34:13;;;;;;;5.40;2.97;;;;;;;8.48;100.00;102056.50;5003528;28;20432;-72
2023/04/20 09:36:50;;;;;;;5.23;2.70;;;;;;;8.02;100.00;101999.63;5003073;28;20499;-72
2023/04/20 09:39:20;;;;;;;6.43;2.87;;;;;;;8.53;100.00;102040.84;5003163;28;20463;-72
2023/04/20 09:41:47;;;;;;;4.00;2.50;;;;;;;8.72;100.00;102079.91;5002623;28;20424;-72
2023/04/20 09:44:14;;;;;;;5.33;3.07;;;;;;;8.98;100.00;102116.56;5001988;28;20440;-72
2023/04/20 09:46:41;;;;;;;3.73;2.77;;;;;;;8.23;100.00;101983.25;5002317;28;20425;-73
2023/04/20 09:49:08;;;;;;;7.40;3.40;;;;;;;8.20;100.00;101991.59;5002295;28;20420;-72
2023/04/20 09:51:40;;;;;;;5.20;2.73;;;;;;;8.56;100.00;102045.00;5002727;28;20433;-71
2023/04/20 09:54:06;;;;;;;5.30;2.53;;;;;;;8.50;100.00;102041.13;4984539;28;20456;-72
2023/04/20 09:56:33;;;;;;;6.80;3.30;;;;;;;8.90;100.00;102109.28;5001423;28;20945;-72
2023/04/20 09:59:00;;;;;;;6.30;3.00;;;;;;;8.72;100.00;102109.34;4984291;28;20496;-72
2023/04/20 10:01:28;;;;;;;6.13;3.47;;;;;;;8.56;100.00;102082.44;5001549;28;20474;-73
2023/04/20 10:03:53;;;;;;;4.43;2.77;;;;;;;8.49;100.00;102089.44;4998500;28;20475;-71
2023/04/20 10:06:26;;;;;;;9.03;3.50;;;;;;;8.57;100.00;102135.81;5002182;28;20430;-72
2023/04/20 10:08:52;;;;;;;3.77;3.07;;;;;;;8.10;100.00;102033.56;5001335;28;20181;-71
2023/04/20 10:11:33;;;;;;;5.60;3.00;;;;;;;7.73;100.00;101967.81;4984768;28;20499;-72
2023/04/20 10:14:00;;;;;;;4.73;3.03;;;;;;;8.73;100.00;102116.34;4999793;28;20449;-73
2023/04/20 10:16:25;;;;;;;5.90;3.07;;;;;;;8.34;100.00;102062.38;5001791;28;20468;-72
2023/04/20 10:19:02;;;;;;;6.50;3.30;;;;;;;8.30;100.00;102052.97;5001077;28;20544;-72
2023/04/20 10:21:31;;;;;;;4.90;3.10;;;;;;;8.66;100.00;102096.59;5002470;28;20177;-72
2023/04/20 10:23:59;;;;;;;5.30;3.57;;;;;;;8.02;100.00;102022.84;5001629;28;20444;-72
2023/04/20 10:26:38;;;;;;;5.77;3.00;;;;;;;8.46;100.00;102092.41;5001738;28;20428;-72
2023/04/20 10:29:05;;;;;;;5.20;3.27;;;;;;;8.53;100.00;102144.28;5002030;28;20412;-72
2023/04/20 10:31:35;;;;;;;7.50;3.90;;;;;;;8.12;100.00;102023.59;5001529;28;20856;-72
2023/04/20 10:34:01;;;;;;;4.27;2.90;;;;;;;7.70;100.00;101970.78;5001179;28;20450;-73
2023/04/20 10:36:36;;;;;;;5.60;3.00;;;;;;;7.74;100.00;101988.16;5001006;28;20981;-72
2023/04/20 10:39:14;;;;;;;5.40;3.40;;;;;;;8.62;100.00;102130.00;5000994;28;20749;-72
2023/04/20 10:41:53;;;;;;;3.83;3.13;;;;;;;8.47;100.00;102128.84;5002254;28;20421;-73
2023/04/20 10:44:20;;;;;;;4.47;3.10;;;;;;;8.36;100.00;102087.09;5001694;28;20544;-72
2023/04/20 10:46:50;;;;;;;3.70;3.07;;;;;;;8.82;100.00;102110.09;5001017;28;20428;-72
2023/04/20 10:49:16;;;;;;;4.50;3.33;;;;;;;8.10;100.00;102017.53;4991369;28;20903;-72
2023/04/20 10:51:49;;;;;;;6.00;3.43;;;;;;;8.26;100.00;102044.41;5001586;28;20425;-74
2023/04/20 10:54:15;;;;;;;4.87;3.30;;;;;;;8.21;100.00;102035.19;5000739;28;20439;-72
2023/04/20 10:56:46;;;;;;;5.70;3.60;;;;;;;8.67;100.00;102114.31;5000174;28;20425;-73
2023/04/20 10:59:16;;;;;;;4.63;3.10;;;;;;;8.47;100.00;102062.00;5002407;28;20467;-73
2023/04/20 11:01:43;;;;;;;5.07;3.30;;;;;;;7.77;100.00;101973.69;5001300;28;20423;-72
2023/04/20 11:04:10;;;;;;;7.10;3.57;;;;;;;8.55;100.00;102094.16;5001433;28;20514;-73
2023/04/20 11:06:40;;;;;;;5.93;3.37;;;;;;;8.33;100.00;102002.72;5000918;28;20417;-73
2023/04/20 11:09:25;;;;;;;4.10;3.10;;;;;;;8.94;100.00;102105.31;5000164;28;20423;-73
2023/04/20 11:12:07;;;;;;;4.63;3.03;;;;;;;8.66;100.00;102023.53;5000954;28;20489;-73
2023/04/20 11:14:37;;;;;;;4.30;3.30;;;;;;;8.99;100.00;102057.50;5000220;28;20444;-73
2023/04/20 11:17:03;;;;;;;8.07;3.53;;;;;;;9.12;100.00;102089.22;5001823;28;20428;-73
2023/04/20 11:19:31;;;;;;;6.10;3.57;;;;;;;8.68;100.00;102000.13;4983837;28;20470;-73
2023/04/20 11:21:57;;;;;;;5.33;3.23;;;;;;;8.87;100.00;102015.13;5000639;28;20511;-73